KNZY/NZY METAR and TAF weather

Enter ICAO airport designator
Station Type Date Time Source
KNZY METAR 2021/05/11 00:52 UTC NOAA

KNZY 110052Z 23009KT 10SM FEW025 16/10 A2990 RMK AO2 SLP125 T01610100


Station Type Date Time Source
KNZY Decoded METAR 2021/05/11 00:52 UTC NOAA

NAS NORTH ISLAND, SAN DIEGO, CA, United States (KNZY) 32-42N 117-13W 14M
May 10, 2021 - 08:52 PM EDT / 2021.05.11 0052 UTC
Wind: from the SW (230 degrees) at 10 MPH (9 KT):0
Visibility: 10 mile(s):0
Sky conditions: mostly clear
Temperature: 61.0 F (16.1 C)
Dew Point: 50.0 F (10.0 C)
Relative Humidity: 67%
Pressure (altimeter): 29.9 in. Hg (1012 hPa)
ob: KNZY 110052Z 23009KT 10SM FEW025 16/10 A2990 RMK AO2 SLP125 T01610100
cycle: 1

Station Type Date Time Source
KNZY TAF 2021/05/10 23:59 UTC NOAA

TAF KNZY 1023/1123 22009KT 9999 SCT024 BKN030 QNH2989INS
FM110100 21006KT 9999 BKN020 BKN027 QNH2986INS
FM110600 VRB06KT 9999 OVC015 QNH2985INS
BECMG 1117/1118 24006KT 9999 SCT020 QNH2989INS
FM112000 26008KT 9999 SCT025 QNH2991INS T14/1114Z T18/1121Z FS30139

Example: see airport list